Time;durP1;ratioP1;P1;durP2;ratioP2;P2;SDS_P1;SDS_P2;PMS_P1;PMS_P2;Temp;Humidity;BMP_temperature;BMP_pressure;BME280_temperature;BME280_humidity;BME280_pressure;Samples;Min_cycle;Max_cycle;Signal;HPM_P1;HPM_P2
2021/06/19 00:00:10;;;;;;;2.60;2.40;;;26.00;99.90;;;;;;5054212;28;20498;-77
2021/06/19 00:02:36;;;;;;;1.53;0.90;;;25.90;99.90;;;;;;5044906;28;20418;-79
2021/06/19 00:05:02;;;;;;;1.20;0.90;;;25.80;99.90;;;;;;5034707;28;20422;-78
2021/06/19 00:07:27;;;;;;;1.10;0.77;;;25.70;99.90;;;;;;5035391;28;20186;-77
2021/06/19 00:09:53;;;;;;;0.90;0.67;;;25.70;99.90;;;;;;5034398;28;20218;-78
2021/06/19 00:12:19;;;;;;;0.90;0.77;;;25.60;99.90;;;;;;5054928;28;20191;-79
2021/06/19 00:14:45;;;;;;;1.20;0.77;;;25.60;99.90;;;;;;5054954;28;20547;-79
2021/06/19 00:17:11;;;;;;;0.90;0.60;;;25.60;99.90;;;;;;5053591;28;20503;-78
2021/06/19 00:19:37;;;;;;;1.63;0.93;;;25.60;99.90;;;;;;5055488;28;20945;-78
2021/06/19 00:22:03;;;;;;;1.27;0.90;;;25.50;99.90;;;;;;5053851;28;20425;-79
2021/06/19 00:24:36;;;;;;;1.00;0.80;;;25.40;99.90;;;;;;5053785;28;20228;-78
2021/06/19 00:27:02;;;;;;;0.90;0.80;;;25.40;99.90;;;;;;5053549;28;20943;-79
2021/06/19 00:29:27;;;;;;;0.93;0.73;;;25.40;99.90;;;;;;5053815;28;20421;-79
2021/06/19 00:31:53;;;;;;;1.00;0.70;;;25.30;99.90;;;;;;5054259;28;20178;-78
2021/06/19 00:34:18;;;;;;;1.03;0.93;;;25.30;99.90;;;;;;5053271;28;20171;-78
2021/06/19 00:36:44;;;;;;;0.90;0.70;;;25.20;99.90;;;;;;5052945;28;20190;-79
2021/06/19 00:39:09;;;;;;;1.10;0.90;;;25.20;99.90;;;;;;5059949;28;20171;-79
2021/06/19 00:41:35;;;;;;;0.80;0.73;;;25.30;99.90;;;;;;5053455;28;20190;-78
2021/06/19 00:44:06;;;;;;;0.80;0.60;;;25.30;99.90;;;;;;5054687;28;20167;-78
2021/06/19 00:46:31;;;;;;;2.00;1.60;;;25.20;99.90;;;;;;5070424;28;20210;-78
2021/06/19 00:48:57;;;;;;;0.80;0.50;;;25.20;99.90;;;;;;5034331;28;20927;-78
2021/06/19 00:51:23;;;;;;;1.83;0.90;;;25.20;99.90;;;;;;5045663;28;20592;-79
2021/06/19 00:53:49;;;;;;;0.90;0.80;;;25.20;99.90;;;;;;5052636;28;20202;-79
2021/06/19 00:56:14;;;;;;;1.00;0.70;;;25.10;99.90;;;;;;5034391;28;20168;-79
2021/06/19 00:58:40;;;;;;;0.90;0.80;;;25.10;99.90;;;;;;5054104;28;20533;-79
2021/06/19 01:01:06;;;;;;;0.80;0.70;;;25.10;99.90;;;;;;5052346;28;20177;-79
2021/06/19 01:03:31;;;;;;;2.90;2.00;;;25.00;99.90;;;;;;5042533;28;20472;-79
2021/06/19 01:05:57;;;;;;;1.00;0.83;;;25.00;99.90;;;;;;5031943;28;20229;-79
2021/06/19 01:08:22;;;;;;;0.87;0.70;;;24.90;99.90;;;;;;5032274;28;20669;-79
2021/06/19 01:10:48;;;;;;;1.27;0.80;;;24.90;99.90;;;;;;5043719;28;20698;-79
2021/06/19 01:13:13;;;;;;;0.90;0.60;;;24.90;99.90;;;;;;5045622;28;20684;-78
2021/06/19 01:15:39;;;;;;;4.27;1.57;;;24.90;99.90;;;;;;5031802;28;20194;-78
2021/06/19 01:18:05;;;;;;;0.83;0.70;;;24.90;99.90;;;;;;5034481;28;20218;-79
2021/06/19 01:20:36;;;;;;;1.00;0.67;;;24.80;99.90;;;;;;5053438;28;20532;-79
2021/06/19 01:23:01;;;;;;;1.13;1.03;;;24.70;99.90;;;;;;5046235;28;20426;-79
2021/06/19 01:25:32;;;;;;;0.90;0.70;;;24.70;99.90;;;;;;5042964;28;20417;-78
2021/06/19 01:27:58;;;;;;;1.20;1.00;;;24.70;99.90;;;;;;5052056;28;20278;-79
2021/06/19 01:30:26;;;;;;;1.20;1.10;;;24.60;99.90;;;;;;5053171;28;20780;-78
2021/06/19 01:32:53;;;;;;;1.27;1.17;;;24.50;99.90;;;;;;5051654;28;20548;-78
2021/06/19 01:35:19;;;;;;;1.20;0.80;;;24.40;99.90;;;;;;5044323;28;20508;-78
2021/06/19 01:37:51;;;;;;;1.00;0.70;;;24.40;99.90;;;;;;5051853;28;20452;-79
2021/06/19 01:40:19;;;;;;;0.90;0.70;;;24.40;99.90;;;;;;5053084;28;20401;-78
2021/06/19 01:42:47;;;;;;;0.90;0.80;;;24.40;99.90;;;;;;5052798;28;20484;-77
2021/06/19 01:45:27;;;;;;;0.80;0.60;;;24.40;99.90;;;;;;5051440;28;20474;-79
2021/06/19 01:47:54;;;;;;;0.90;0.80;;;24.40;99.90;;;;;;5051470;28;20429;-79
2021/06/19 01:50:22;;;;;;;1.30;1.00;;;24.40;99.90;;;;;;5052316;28;20433;-79
2021/06/19 01:52:49;;;;;;;0.80;0.60;;;24.30;99.90;;;;;;5053084;28;20575;-78
2021/06/19 01:55:15;;;;;;;0.80;0.60;;;24.20;99.90;;;;;;5052880;28;20402;-78
2021/06/19 01:57:41;;;;;;;1.20;0.80;;;24.20;99.90;;;;;;5051047;28;20437;-79
2021/06/19 02:00:13;;;;;;;0.90;0.73;;;24.20;99.90;;;;;;5051702;28;20464;-78
2021/06/19 02:02:39;;;;;;;1.00;0.70;;;24.10;99.90;;;;;;5052221;28;20815;-79
2021/06/19 02:05:06;;;;;;;2.13;1.97;;;24.10;99.90;;;;;;5052414;28;20421;-79
2021/06/19 02:07:33;;;;;;;0.90;0.70;;;24.10;99.90;;;;;;5052744;28;20451;-80
2021/06/19 02:09:59;;;;;;;1.00;0.73;;;24.00;99.90;;;;;;5051030;28;20421;-79
2021/06/19 02:12:25;;;;;;;0.80;0.60;;;23.90;99.90;;;;;;5051365;28;20453;-79
2021/06/19 02:14:50;;;;;;;0.90;0.70;;;23.90;99.90;;;;;;5031676;28;20415;-80
2021/06/19 02:17:16;;;;;;;0.80;0.60;;;23.80;99.90;;;;;;5032299;28;20176;-79
2021/06/19 02:19:41;;;;;;;0.80;0.50;;;23.80;99.90;;;;;;5048248;28;20178;-79
2021/06/19 02:22:07;;;;;;;1.10;0.70;;;23.70;99.90;;;;;;5052392;28;20175;-79
2021/06/19 02:24:32;;;;;;;1.57;0.90;;;23.80;99.90;;;;;;5051849;28;20213;-78
2021/06/19 02:27:13;;;;;;;0.80;0.60;;;23.80;99.90;;;;;;5052204;28;20201;-78
2021/06/19 02:29:39;;;;;;;0.80;0.60;;;23.80;99.90;;;;;;5051676;28;20200;-80
2021/06/19 02:32:06;;;;;;;1.23;1.10;;;23.80;99.90;;;;;;5051035;28;20461;-79
2021/06/19 02:34:33;;;;;;;0.93;0.83;;;23.70;99.90;;;;;;5043749;28;20551;-78
2021/06/19 02:36:58;;;;;;;0.90;0.80;;;23.60;99.90;;;;;;5050475;28;20439;-80
2021/06/19 02:39:24;;;;;;;0.90;0.70;;;23.60;99.90;;;;;;5051580;28;20421;-78
2021/06/19 02:41:50;;;;;;;0.90;0.60;;;23.70;99.90;;;;;;5051600;28;20652;-78
2021/06/19 02:44:15;;;;;;;0.80;0.60;;;23.40;99.90;;;;;;5040540;28;20179;-80
2021/06/19 02:46:41;;;;;;;0.80;0.60;;;23.40;99.90;;;;;;5039081;28;20670;-79
2021/06/19 02:49:06;;;;;;;0.90;0.60;;;23.40;99.90;;;;;;5050964;28;20191;-79
2021/06/19 02:51:32;;;;;;;0.90;0.70;;;23.40;99.90;;;;;;5052135;28;20236;-79
2021/06/19 02:53:57;;;;;;;0.80;0.60;;;23.40;99.90;;;;;;5051376;28;20248;-79
2021/06/19 02:56:23;;;;;;;0.80;0.60;;;23.40;99.90;;;;;;5052837;28;20163;-78
2021/06/19 02:58:48;;;;;;;0.90;0.70;;;23.30;99.90;;;;;;5053459;28;20167;-78
2021/06/19 03:01:14;;;;;;;2.90;1.03;;;23.40;99.90;;;;;;5052702;28;20201;-79
2021/06/19 03:03:39;;;;;;;1.83;0.83;;;23.30;99.90;;;;;;5053121;28;20257;-78
2021/06/19 03:06:05;;;;;;;0.90;0.77;;;23.30;99.90;;;;;;5051193;28;20183;-80
2021/06/19 03:08:31;;;;;;;0.80;0.60;;;23.30;99.90;;;;;;5053352;28;20191;-79
2021/06/19 03:10:57;;;;;;;0.80;0.60;;;23.30;99.90;;;;;;5053067;28;20185;-78
2021/06/19 03:13:22;;;;;;;6.60;0.70;;;23.30;99.90;;;;;;5053014;28;20203;-78
2021/06/19 03:15:48;;;;;;;0.80;0.53;;;23.30;99.90;;;;;;5053300;28;20767;-79
2021/06/19 03:18:13;;;;;;;0.80;0.60;;;23.40;99.90;;;;;;5052559;28;20656;-79
2021/06/19 03:20:39;;;;;;;1.00;0.70;;;23.30;99.90;;;;;;5051751;28;20561;-79
2021/06/19 03:23:06;;;;;;;0.80;0.67;;;23.30;99.90;;;;;;5047916;28;20251;-78
2021/06/19 03:25:34;;;;;;;1.67;1.57;;;23.30;99.90;;;;;;5032231;28;20406;-79
2021/06/19 03:28:03;;;;;;;1.30;0.87;;;23.30;99.90;;;;;;5032717;28;20437;-79
2021/06/19 03:30:30;;;;;;;0.90;0.60;;;23.30;99.90;;;;;;5038969;28;20512;-79
2021/06/19 03:32:56;;;;;;;0.80;0.60;;;23.30;99.90;;;;;;5056260;28;20449;-80
2021/06/19 03:35:22;;;;;;;0.90;0.70;;;23.30;99.90;;;;;;5054491;28;20759;-79
2021/06/19 03:37:48;;;;;;;0.80;0.60;;;23.30;99.90;;;;;;5055727;28;20444;-79
2021/06/19 03:40:15;;;;;;;0.80;0.60;;;23.20;99.90;;;;;;5054719;28;20422;-79
2021/06/19 03:42:42;;;;;;;0.80;0.60;;;23.20;99.90;;;;;;5054675;28;20414;-79
2021/06/19 03:45:09;;;;;;;0.80;0.53;;;23.20;99.90;;;;;;5055277;28;20422;-78
2021/06/19 03:47:36;;;;;;;5.43;2.00;;;23.10;99.90;;;;;;5053884;28;20452;-78
2021/06/19 03:50:03;;;;;;;0.80;0.50;;;23.10;99.90;;;;;;5053635;28;20444;-79
2021/06/19 03:52:29;;;;;;;0.80;0.60;;;23.10;99.90;;;;;;5055138;28;20478;-79
2021/06/19 03:54:54;;;;;;;1.43;1.33;;;23.00;99.90;;;;;;5055745;28;20409;-79
2021/06/19 03:57:31;;;;;;;0.80;0.60;;;23.00;99.90;;;;;;5054208;28;20191;-77
2021/06/19 03:59:57;;;;;;;0.90;0.80;;;22.90;99.90;;;;;;5055652;28;20224;-79
2021/06/19 04:02:22;;;;;;;0.90;0.60;;;22.90;99.90;;;;;;5053780;28;20419;-78
2021/06/19 04:04:48;;;;;;;0.80;0.60;;;22.80;99.90;;;;;;5054944;28;21162;-77
2021/06/19 04:07:15;;;;;;;0.80;0.50;;;22.80;99.90;;;;;;5055420;28;20277;-78
2021/06/19 04:09:41;;;;;;;0.90;0.80;;;22.80;99.90;;;;;;5054222;28;20421;-78
2021/06/19 04:12:07;;;;;;;0.90;0.73;;;22.70;99.90;;;;;;5054272;28;20417;-77
2021/06/19 04:14:33;;;;;;;1.20;0.83;;;22.80;99.90;;;;;;5055192;28;20412;-80
2021/06/19 04:16:59;;;;;;;2.13;0.90;;;22.70;99.90;;;;;;5054980;28;20445;-79
2021/06/19 04:19:24;;;;;;;1.10;0.80;;;22.70;99.90;;;;;;5056931;28;20852;-80
2021/06/19 04:21:50;;;;;;;0.90;0.60;;;22.70;99.90;;;;;;5057272;28;20178;-79
2021/06/19 04:24:16;;;;;;;1.13;0.90;;;22.70;99.90;;;;;;5054939;28;20177;-79
2021/06/19 04:26:42;;;;;;;0.80;0.60;;;22.70;99.90;;;;;;5055472;28;20682;-78
2021/06/19 04:29:07;;;;;;;0.80;0.50;;;22.80;99.90;;;;;;5051368;28;20178;-77
2021/06/19 04:31:33;;;;;;;1.20;0.93;;;22.70;99.90;;;;;;5057875;28;20171;-78
2021/06/19 04:33:59;;;;;;;0.80;0.60;;;22.70;99.90;;;;;;5059418;28;20674;-78
2021/06/19 04:36:28;;;;;;;0.80;0.50;;;22.70;99.90;;;;;;5057530;28;20171;-79
2021/06/19 04:38:54;;;;;;;1.27;0.80;;;22.70;99.90;;;;;;5052843;28;20175;-79
2021/06/19 04:46:14;;;;;;;0.80;0.50;;;22.80;99.90;;;;;;5035140;28;20460;-79
2021/06/19 04:48:39;;;;;;;1.10;0.80;;;22.90;99.90;;;;;;5034087;28;20171;-79
2021/06/19 04:51:06;;;;;;;0.80;0.50;;;22.90;99.90;;;;;;5035773;28;20155;-79
2021/06/19 04:53:31;;;;;;;0.80;0.60;;;22.90;99.90;;;;;;5036340;28;20646;-79
2021/06/19 04:56:00;;;;;;;0.80;0.60;;;23.00;99.90;;;;;;5035343;28;20506;-79
2021/06/19 04:58:26;;;;;;;0.90;0.60;;;23.00;99.90;;;;;;5034478;28;20561;-79
2021/06/19 05:00:52;;;;;;;0.90;0.70;;;23.00;99.90;;;;;;5049546;28;20500;-78
2021/06/19 05:03:18;;;;;;;1.00;0.73;;;23.20;99.90;;;;;;5033172;28;20190;-80
2021/06/19 05:05:43;;;;;;;0.80;0.50;;;23.20;99.90;;;;;;5045139;28;20187;-79
2021/06/19 05:08:09;;;;;;;0.80;0.50;;;23.20;99.90;;;;;;5053068;28;20190;-78
2021/06/19 05:10:35;;;;;;;0.80;0.60;;;23.30;99.90;;;;;;5053433;28;20178;-78
2021/06/19 05:13:00;;;;;;;0.80;0.60;;;23.40;99.90;;;;;;5050241;28;20615;-78
2021/06/19 05:15:26;;;;;;;0.87;0.57;;;23.40;99.90;;;;;;5032837;28;20733;-79
2021/06/19 05:17:55;;;;;;;1.00;0.60;;;23.40;99.90;;;;;;5034276;28;20213;-79
2021/06/19 05:20:21;;;;;;;1.00;0.80;;;23.40;99.90;;;;;;5037115;28;20624;-78
2021/06/19 05:22:48;;;;;;;0.93;0.77;;;23.60;99.90;;;;;;5057167;28;20409;-78
2021/06/19 05:25:14;;;;;;;1.00;0.70;;;23.70;99.90;;;;;;5058883;28;20457;-79
2021/06/19 05:27:43;;;;;;;0.80;0.60;;;23.80;99.90;;;;;;5054054;28;20447;-78
2021/06/19 05:30:11;;;;;;;0.80;0.50;;;23.80;99.90;;;;;;5054266;28;20428;-79
2021/06/19 05:32:36;;;;;;;0.90;0.70;;;23.90;99.90;;;;;;5056635;28;20489;-79
2021/06/19 05:35:03;;;;;;;0.93;0.70;;;23.90;99.90;;;;;;5056097;28;20471;-78
2021/06/19 05:37:28;;;;;;;0.80;0.50;;;24.00;99.90;;;;;;5056925;28;20583;-78
2021/06/19 05:39:54;;;;;;;1.07;0.90;;;24.00;99.90;;;;;;5058288;28;20417;-77
2021/06/19 05:42:21;;;;;;;0.90;0.60;;;24.00;99.90;;;;;;5059217;28;20564;-79
2021/06/19 05:44:46;;;;;;;0.80;0.60;;;24.10;99.90;;;;;;5059481;28;20448;-78
2021/06/19 05:47:12;;;;;;;0.80;0.70;;;24.20;99.90;;;;;;5058519;28;20433;-78
2021/06/19 05:49:37;;;;;;;0.90;0.60;;;24.30;99.90;;;;;;5055497;28;20183;-79
2021/06/19 05:52:04;;;;;;;0.80;0.53;;;24.30;99.90;;;;;;5056347;28;20269;-79
2021/06/19 05:54:30;;;;;;;1.00;0.80;;;24.30;99.90;;;;;;5058108;28;20178;-79
2021/06/19 05:56:55;;;;;;;0.80;0.60;;;24.50;99.90;;;;;;5054262;28;20437;-77
2021/06/19 05:59:21;;;;;;;0.80;0.50;;;24.60;99.90;;;;;;5054560;28;20175;-79
2021/06/19 06:01:46;;;;;;;0.90;0.70;;;24.70;99.90;;;;;;5054724;28;20693;-79
2021/06/19 06:04:12;;;;;;;0.80;0.50;;;24.90;99.90;;;;;;5057450;28;20182;-78
2021/06/19 06:06:38;;;;;;;0.80;0.63;;;24.80;99.90;;;;;;5060778;28;20187;-78
2021/06/19 06:09:04;;;;;;;0.90;0.70;;;25.00;99.90;;;;;;5057215;28;20265;-79
2021/06/19 06:11:29;;;;;;;1.30;0.80;;;25.10;99.90;;;;;;5054677;28;20187;-79
2021/06/19 06:13:55;;;;;;;1.00;0.70;;;25.20;99.90;;;;;;5055640;28;20544;-78
2021/06/19 06:16:21;;;;;;;0.80;0.60;;;25.20;99.90;;;;;;5042411;28;20198;-79
2021/06/19 06:18:46;;;;;;;1.10;0.80;;;25.30;99.90;;;;;;5056186;28;20173;-80
2021/06/19 06:21:11;;;;;;;0.90;0.60;;;25.40;99.90;;;;;;5055169;28;20178;-79
2021/06/19 06:23:37;;;;;;;0.80;0.60;;;25.60;99.90;;;;;;5056039;28;20639;-79
2021/06/19 06:26:03;;;;;;;0.80;0.60;;;25.70;99.90;;;;;;5032651;28;20736;-77
2021/06/19 06:28:29;;;;;;;0.80;0.70;;;25.80;99.90;;;;;;5032924;28;20534;-78
2021/06/19 06:30:55;;;;;;;0.80;0.60;;;26.00;99.90;;;;;;5040812;28;20266;-79
2021/06/19 06:33:22;;;;;;;0.80;0.60;;;26.20;99.90;;;;;;5051918;28;20590;-79
2021/06/19 06:35:47;;;;;;;0.90;0.60;;;26.30;99.90;;;;;;5055715;28;20410;-77
2021/06/19 06:38:13;;;;;;;1.10;0.60;;;26.50;99.90;;;;;;5064267;28;20433;-78
2021/06/19 06:40:39;;;;;;;0.90;0.70;;;26.60;99.90;;;;;;5053733;28;20175;-79
2021/06/19 06:43:04;;;;;;;0.90;0.80;;;26.70;99.90;;;;;;5056012;28;20551;-79
2021/06/19 06:45:30;;;;;;;1.00;0.77;;;26.80;99.90;;;;;;5058728;28;20186;-78
2021/06/19 06:47:57;;;;;;;0.90;0.70;;;26.90;99.90;;;;;;5058538;28;20202;-78
2021/06/19 06:50:24;;;;;;;0.90;0.67;;;27.00;99.90;;;;;;5090774;28;20189;-79
2021/06/19 06:52:49;;;;;;;0.90;0.70;;;27.10;99.90;;;;;;5054286;28;20457;-79
2021/06/19 06:55:15;;;;;;;0.90;0.70;;;27.10;99.90;;;;;;5055630;28;20959;-76
2021/06/19 06:57:41;;;;;;;1.20;0.70;;;27.20;99.90;;;;;;5056330;28;20229;-79
2021/06/19 07:00:08;;;;;;;0.80;0.60;;;27.30;99.90;;;;;;5054817;28;20778;-79
2021/06/19 07:02:34;;;;;;;0.90;0.70;;;27.50;99.90;;;;;;5088289;28;20178;-78
2021/06/19 07:04:59;;;;;;;0.97;0.80;;;27.80;99.90;;;;;;5057232;28;20425;-78
2021/06/19 07:07:25;;;;;;;1.20;0.80;;;27.70;99.90;;;;;;5060057;28;20569;-76
2021/06/19 07:09:51;;;;;;;0.93;0.83;;;27.90;99.90;;;;;;5057111;28;20580;-77
2021/06/19 07:12:16;;;;;;;1.00;0.83;;;27.90;99.90;;;;;;5058443;28;20664;-79
2021/06/19 07:14:42;;;;;;;1.37;0.70;;;28.00;99.90;;;;;;5057829;28;20174;-78
2021/06/19 07:17:09;;;;;;;0.87;0.60;;;28.30;99.90;;;;;;5057212;28;20245;-78
2021/06/19 07:19:35;;;;;;;1.10;0.93;;;28.50;99.90;;;;;;5057373;28;20632;-78
2021/06/19 07:22:01;;;;;;;0.90;0.70;;;28.50;99.90;;;;;;5059443;28;20922;-78
2021/06/19 07:24:26;;;;;;;0.90;0.70;;;28.80;99.90;;;;;;5060604;28;20421;-78
2021/06/19 07:26:52;;;;;;;0.90;0.70;;;29.00;99.90;;;;;;5058487;28;20198;-77
2021/06/19 07:29:17;;;;;;;0.90;0.77;;;29.20;99.90;;;;;;5058982;28;20171;-77
2021/06/19 07:31:43;;;;;;;1.10;0.73;;;29.40;99.90;;;;;;5061103;28;20178;-76
2021/06/19 07:34:09;;;;;;;0.90;0.60;;;29.60;99.90;;;;;;5057697;28;20210;-79
2021/06/19 07:36:35;;;;;;;0.90;0.67;;;29.90;99.90;;;;;;5046964;28;20231;-78
2021/06/19 07:39:00;;;;;;;0.90;0.60;;;30.10;99.90;;;;;;5056371;28;20229;-78
2021/06/19 07:41:26;;;;;;;0.90;0.80;;;30.10;99.90;;;;;;5052234;28;20171;-77
2021/06/19 07:43:53;;;;;;;0.90;0.80;;;30.30;99.90;;;;;;5057719;28;20182;-77
2021/06/19 07:46:18;;;;;;;0.90;0.60;;;30.30;99.90;;;;;;5055886;28;20190;-78
2021/06/19 07:48:44;;;;;;;1.00;0.80;;;30.50;99.90;;;;;;5056912;28;20429;-76
2021/06/19 07:51:09;;;;;;;0.93;0.77;;;30.80;99.90;;;;;;5055891;28;20262;-76
2021/06/19 07:53:35;;;;;;;0.93;0.70;;;30.90;99.90;;;;;;5057722;28;20191;-76
2021/06/19 07:56:00;;;;;;;0.90;0.70;;;30.90;99.90;;;;;;5055538;28;20709;-78
2021/06/19 07:58:26;;;;;;;0.90;0.70;;;31.00;99.90;;;;;;5055723;28;20190;-78
2021/06/19 08:00:52;;;;;;;0.90;0.60;;;30.90;99.90;;;;;;5054408;28;20179;-77
2021/06/19 08:03:17;;;;;;;1.00;0.87;;;31.10;99.90;;;;;;5060778;28;20186;-79
2021/06/19 08:05:43;;;;;;;1.00;0.90;;;31.40;99.90;;;;;;5058977;28;20269;-78
2021/06/19 08:08:08;;;;;;;1.20;0.87;;;31.50;99.90;;;;;;5055248;28;20234;-78
2021/06/19 08:10:34;;;;;;;0.90;0.80;;;31.50;99.90;;;;;;5050170;28;20175;-78
2021/06/19 08:12:59;;;;;;;1.30;1.10;;;31.80;99.90;;;;;;5088351;28;20203;-79
2021/06/19 08:15:26;;;;;;;1.10;0.90;;;32.10;99.90;;;;;;5056309;28;20182;-78
2021/06/19 08:17:52;;;;;;;0.90;0.67;;;32.40;99.90;;;;;;5058139;28;20533;-79
2021/06/19 08:20:18;;;;;;;1.00;0.70;;;32.40;99.90;;;;;;5058396;28;20613;-78
2021/06/19 08:22:43;;;;;;;1.10;0.80;;;32.60;99.90;;;;;;5058807;28;20674;-78
2021/06/19 08:25:10;;;;;;;1.13;1.03;;;32.90;99.90;;;;;;5058629;28;20433;-77
2021/06/19 08:27:36;;;;;;;1.40;1.30;;;32.90;99.90;;;;;;5057860;28;20194;-78
2021/06/19 08:30:03;;;;;;;1.30;1.20;;;33.20;99.90;;;;;;5060215;28;20926;-79
2021/06/19 08:32:28;;;;;;;0.90;0.80;;;33.50;99.90;;;;;;5059232;28;20863;-78
2021/06/19 08:34:54;;;;;;;0.90;0.80;;;33.30;96.50;;;;;;5057695;28;20490;-78
2021/06/19 08:37:19;;;;;;;1.00;0.80;;;33.60;98.10;;;;;;5055055;28;20199;-77
2021/06/19 08:39:45;;;;;;;1.00;0.90;;;33.60;96.50;;;;;;5053399;28;20190;-77
2021/06/19 08:42:11;;;;;;;5.90;1.17;;;33.80;95.30;;;;;;5055632;28;20205;-78
2021/06/19 08:44:36;;;;;;;1.00;0.77;;;34.00;95.90;;;;;;5055625;28;20175;-79
2021/06/19 08:47:02;;;;;;;0.90;0.77;;;34.10;90.90;;;;;;5056877;28;20741;-79
2021/06/19 08:49:28;;;;;;;0.90;0.70;;;34.30;89.90;;;;;;5055568;28;20255;-78
2021/06/19 08:51:57;;;;;;;1.20;0.90;;;34.20;86.80;;;;;;5060291;28;20441;-78
2021/06/19 08:54:24;;;;;;;0.90;0.70;;;34.50;88.50;;;;;;5059715;28;20452;-79
2021/06/19 08:56:50;;;;;;;0.90;0.60;;;34.50;80.40;;;;;;5083846;28;20453;-78
2021/06/19 08:59:16;;;;;;;1.10;1.00;;;34.80;81.90;;;;;;5058395;28;20429;-78
2021/06/19 09:01:42;;;;;;;1.10;0.70;;;34.90;80.30;;;;;;5060670;28;20394;-79
2021/06/19 09:04:12;;;;;;;1.73;0.87;;;35.10;76.60;;;;;;5059143;28;20987;-78
2021/06/19 09:06:41;;;;;;;1.33;0.80;;;35.10;74.90;;;;;;5060005;28;20202;-79
2021/06/19 09:09:08;;;;;;;1.07;0.90;;;35.30;75.60;;;;;;5059829;28;20451;-78
2021/06/19 09:11:39;;;;;;;1.00;0.80;;;35.40;76.90;;;;;;5053468;28;20475;-79
2021/06/19 09:14:09;;;;;;;0.90;0.80;;;35.60;70.50;;;;;;5056446;28;20452;-79
2021/06/19 09:16:36;;;;;;;0.90;0.70;;;36.00;69.60;;;;;;5060180;28;20449;-78
2021/06/19 09:19:20;;;;;;;1.27;1.07;;;36.10;67.40;;;;;;5057205;28;20429;-79
2021/06/19 09:21:46;;;;;;;1.10;0.80;;;36.30;71.40;;;;;;5051367;28;20439;-79
2021/06/19 09:24:11;;;;;;;0.90;0.70;;;36.70;70.50;;;;;;5058398;28;20532;-79
2021/06/19 09:26:37;;;;;;;0.90;0.70;;;36.90;67.30;;;;;;5053735;28;20190;-79
2021/06/19 09:29:05;;;;;;;1.10;0.83;;;37.00;64.70;;;;;;5052720;28;20228;-79
2021/06/19 09:31:36;;;;;;;1.10;1.00;;;37.00;61.10;;;;;;5055911;28;20182;-79
2021/06/19 09:34:10;;;;;;;0.90;0.80;;;37.00;61.20;;;;;;5058288;28;20500;-79
2021/06/19 09:36:46;;;;;;;0.90;0.80;;;37.10;60.30;;;;;;5053573;28;20548;-77
2021/06/19 09:39:14;;;;;;;0.90;0.70;;;37.00;60.50;;;;;;5038037;28;20430;-78
2021/06/19 09:41:46;;;;;;;1.03;0.93;;;36.90;65.80;;;;;;5054413;28;20437;-78
2021/06/19 09:44:12;;;;;;;0.90;0.80;;;37.10;66.10;;;;;;5058078;28;20444;-78
2021/06/19 09:46:38;;;;;;;2.00;1.20;;;37.30;67.00;;;;;;5055931;28;20453;-79
2021/06/19 09:49:17;;;;;;;0.90;0.80;;;37.50;65.00;;;;;;5059765;28;20190;-78
2021/06/19 09:51:51;;;;;;;0.90;0.70;;;37.50;65.80;;;;;;5086348;28;20964;-78
2021/06/19 09:54:19;;;;;;;1.00;0.90;;;37.70;63.30;;;;;;5056165;28;20457;-79
2021/06/19 09:56:56;;;;;;;1.00;0.90;;;37.40;62.80;;;;;;5091186;28;20472;-78
2021/06/19 09:59:33;;;;;;;1.10;0.93;;;37.70;69.30;;;;;;5060363;28;20500;-80
2021/06/19 10:02:02;;;;;;;1.20;1.00;;;37.50;59.80;;;;;;5056092;28;20425;-78
2021/06/19 10:04:30;;;;;;;1.00;0.80;;;37.40;57.90;;;;;;5052765;28;20423;-79
2021/06/19 10:06:57;;;;;;;1.93;1.77;;;37.40;59.10;;;;;;5052551;28;20551;-79
2021/06/19 10:09:23;;;;;;;0.90;0.70;;;37.60;59.60;;;;;;5056190;28;20428;-78
2021/06/19 10:11:53;;;;;;;1.00;0.90;;;37.60;60.10;;;;;;5059409;28;20433;-79
2021/06/19 10:14:21;;;;;;;0.93;0.83;;;37.80;58.60;;;;;;5058849;28;20463;-78
2021/06/19 10:16:50;;;;;;;0.90;0.70;;;37.60;60.60;;;;;;5055383;28;20459;-78
2021/06/19 10:19:18;;;;;;;0.90;0.77;;;37.70;59.10;;;;;;5088801;28;20429;-78
2021/06/19 10:21:46;;;;;;;0.90;0.80;;;38.00;58.80;;;;;;5037781;28;20786;-78
2021/06/19 10:24:12;;;;;;;1.00;0.80;;;38.00;56.30;;;;;;5050614;28;20426;-79
2021/06/19 10:26:39;;;;;;;1.10;1.00;;;38.00;57.30;;;;;;5054753;28;20442;-80
2021/06/19 10:29:06;;;;;;;1.17;1.07;;;38.20;57.20;;;;;;5056790;28;20401;-79
2021/06/19 10:31:43;;;;;;;1.47;1.07;;;38.60;57.40;;;;;;5056099;28;20422;-79
2021/06/19 10:34:24;;;;;;;1.47;0.90;;;38.40;56.00;;;;;;5054581;28;20461;-79
2021/06/19 10:36:52;;;;;;;1.00;0.90;;;38.60;55.90;;;;;;5049098;28;20824;-79
2021/06/19 10:39:33;;;;;;;3.90;1.40;;;39.00;55.90;;;;;;5067595;28;20424;-78
2021/06/19 10:41:59;;;;;;;1.03;0.93;;;38.70;55.90;;;;;;5060900;28;20413;-79
2021/06/19 10:44:58;;;;;;;1.97;1.00;;;39.10;55.00;;;;;;5073131;28;20421;-78
2021/06/19 10:47:33;;;;;;;1.10;1.00;;;39.20;54.40;;;;;;5041947;28;20458;-79
2021/06/19 10:50:00;;;;;;;1.00;0.90;;;39.40;52.60;;;;;;5060167;28;20444;-78
2021/06/19 10:52:38;;;;;;;0.93;0.83;;;39.20;56.20;;;;;;5058153;28;20452;-78
2021/06/19 10:55:10;;;;;;;0.90;0.80;;;39.00;55.20;;;;;;5058369;28;20778;-78
2021/06/19 10:57:51;;;;;;;1.00;0.83;;;38.90;56.40;;;;;;5057902;28;20448;-78
2021/06/19 11:00:25;;;;;;;1.00;0.87;;;38.90;54.80;;;;;;5057629;28;20485;-78
2021/06/19 11:02:52;;;;;;;1.00;0.90;;;38.60;55.70;;;;;;5073547;28;20426;-79
2021/06/19 11:05:43;;;;;;;0.97;0.87;;;38.40;54.20;;;;;;5071952;28;20432;-78
2021/06/19 11:08:09;;;;;;;1.00;0.90;;;38.70;55.30;;;;;;5058625;28;20433;-79
2021/06/19 11:10:44;;;;;;;1.00;0.90;;;38.70;52.90;;;;;;5054461;28;20429;-78
2021/06/19 11:13:31;;;;;;;0.90;0.80;;;38.60;53.70;;;;;;5061008;28;20449;-78
2021/06/19 11:16:01;;;;;;;1.20;1.10;;;38.70;55.60;;;;;;5038381;28;20436;-78
2021/06/19 11:18:52;;;;;;;1.10;0.90;;;38.50;53.90;;;;;;5036963;28;20433;-77
2021/06/19 11:21:25;;;;;;;1.00;0.80;;;38.80;55.50;;;;;;5044286;28;20887;-79
2021/06/19 11:24:04;;;;;;;1.70;1.10;;;38.70;53.10;;;;;;5059826;28;20809;-79
2021/06/19 11:27:06;;;;;;;0.90;0.70;;;38.90;52.80;;;;;;5060194;28;20435;-78
2021/06/19 11:29:41;;;;;;;1.20;0.87;;;38.80;52.10;;;;;;5057101;28;20415;-78
2021/06/19 11:32:27;;;;;;;1.00;0.90;;;38.40;51.60;;;;;;5057564;28;20523;-78
2021/06/19 11:34:55;;;;;;;0.90;0.80;;;38.40;52.70;;;;;;5060244;28;20417;-78
2021/06/19 11:37:21;;;;;;;0.90;0.70;;;38.50;56.20;;;;;;5061818;28;20455;-79
2021/06/19 11:39:47;;;;;;;1.33;1.00;;;38.30;53.60;;;;;;5057809;28;20409;-78
2021/06/19 11:42:14;;;;;;;1.00;0.90;;;38.10;54.10;;;;;;5058249;28;20401;-78
2021/06/19 11:44:45;;;;;;;1.00;0.80;;;38.10;55.30;;;;;;5059164;28;20480;-78
2021/06/19 11:47:12;;;;;;;1.00;0.90;;;38.00;52.90;;;;;;5059222;28;20487;-79
2021/06/19 11:49:40;;;;;;;1.00;0.90;;;38.30;57.00;;;;;;5058507;28;20520;-79
2021/06/19 11:52:08;;;;;;;0.90;0.80;;;38.30;56.00;;;;;;5058117;28;20851;-77
2021/06/19 11:54:41;;;;;;;1.20;1.10;;;38.50;54.30;;;;;;5091371;28;20424;-78
2021/06/19 11:57:07;;;;;;;1.00;0.90;;;38.60;56.20;;;;;;5092199;28;20448;-78
2021/06/19 11:59:33;;;;;;;1.43;1.10;;;38.50;53.40;;;;;;5059736;28;20752;-78
2021/06/19 12:01:59;;;;;;;1.00;0.90;;;38.80;52.50;;;;;;5092219;28;20448;-77
2021/06/19 12:04:30;;;;;;;0.90;0.70;;;39.00;53.90;;;;;;5057594;28;20178;-78
2021/06/19 12:06:58;;;;;;;1.10;1.00;;;39.10;53.40;;;;;;5050950;28;20729;-77
2021/06/19 12:09:28;;;;;;;1.37;1.23;;;38.90;52.70;;;;;;5056773;28;20423;-78
2021/06/19 12:11:58;;;;;;;1.17;1.07;;;38.70;52.30;;;;;;5038047;28;20406;-78
2021/06/19 12:14:29;;;;;;;1.00;0.90;;;38.70;54.00;;;;;;5080400;28;20847;-77
2021/06/19 12:17:01;;;;;;;1.03;0.93;;;38.90;50.90;;;;;;5051352;28;20436;-77
2021/06/19 12:19:29;;;;;;;1.10;0.80;;;38.90;52.40;;;;;;5033164;28;20418;-77
2021/06/19 12:22:04;;;;;;;1.13;1.03;;;38.90;54.30;;;;;;5035632;28;20470;-78
2021/06/19 12:24:35;;;;;;;1.33;1.13;;;38.90;52.30;;;;;;5035349;28;20414;-78
2021/06/19 12:27:01;;;;;;;1.10;0.87;;;38.40;51.90;;;;;;5051291;28;20433;-78
2021/06/19 12:29:34;;;;;;;1.37;1.27;;;37.90;52.10;;;;;;5046212;28;20418;-77
2021/06/19 12:32:00;;;;;;;0.90;0.80;;;37.80;55.10;;;;;;5034730;28;20172;-78
2021/06/19 12:34:27;;;;;;;0.90;0.80;;;37.50;53.90;;;;;;5035551;28;20469;-77
2021/06/19 12:36:53;;;;;;;1.57;1.20;;;37.20;55.80;;;;;;5035282;28;20422;-77
2021/06/19 12:39:20;;;;;;;1.40;1.00;;;36.90;57.70;;;;;;5054790;28;20401;-78
2021/06/19 12:41:46;;;;;;;1.20;0.90;;;36.60;59.40;;;;;;5049572;28;20922;-77
2021/06/19 12:44:12;;;;;;;1.00;0.80;;;36.20;62.90;;;;;;5067173;28;20522;-78
2021/06/19 12:46:37;;;;;;;1.00;0.90;;;36.00;66.90;;;;;;5069857;28;20225;-78
2021/06/19 12:49:05;;;;;;;1.13;1.03;;;35.80;66.60;;;;;;5041939;28;20195;-79
2021/06/19 12:51:35;;;;;;;0.90;0.70;;;35.90;69.20;;;;;;5038165;28;20176;-79
2021/06/19 12:54:22;;;;;;;0.90;0.80;;;36.00;68.80;;;;;;5037745;28;20464;-79